Flight Track Log - Related Links

Times and Time Zones

All times are in EDT time to prevent confusion due to time zone crossing. See the AAY861 flight status page for this flight to view local times or setup timezone preferences in your user account.

Time Position Orientation Groundspeed Altitude Reporting Facility
EDT Latitude Longitude Course Direction KTS MPH feet Rate Location/Type
Mon 09:09:55 AM 37.9569 -84.6469 166° South 257 296 3,600  Level Indianapolis Center
Mon 09:10:56 AM 37.8828 -84.6239 166° South 264 304 6,100 2,656 Climbing Indianapolis Center
Mon 09:11:57 AM 37.8022 -84.5956 164° South 286 329 9,000 2,293 Climbing Indianapolis Center
Mon 09:12:59 AM 37.7172 -84.5769 170° South 304 350 10,800 1,935 Climbing Indianapolis Center
Mon 09:14:00 AM 37.4282 -84.3164 166° South  Level FlightAware Approximate
Mon 09:14:01 AM 37.5972 -84.5581 173° South 359 413 13,000  Level Indianapolis Center
Mon 09:15:00 AM 37.3195 -84.2818 166° South  Level FlightAware Approximate
Mon 09:15:03 AM 37.4897 -84.5414 173° South 382 440 15,300  Level Indianapolis Center
Mon 09:16:05 AM 37.3800 -84.5317 176° South 390 449 17,300 1,887 Climbing Indianapolis Center
Mon 09:17:07 AM 37.2658 -84.5292 179° South 401 461 19,200 1,742 Climbing Indianapolis Center
Mon 09:18:09 AM 37.1497 -84.5264 179° South 412 474 20,900 1,742 Climbing Indianapolis Center
Mon 09:19:11 AM 37.0119 -84.5231 179° South 421 484 22,800 1,597 Climbing Indianapolis Center
Mon 09:20:13 AM 36.8917 -84.5194 179° South 424 488 24,200 1,355 Climbing Indianapolis Center
Mon 09:21:15 AM 36.7697 -84.5167 179° South 433 498 25,600 1,258 Climbing Indianapolis Center
Mon 09:22:17 AM 36.6425 -84.5133 179° South 445 512 26,800 1,161 Climbing Indianapolis Center
Mon 09:23:19 AM 36.5144 -84.5089 178° South 452 520 28,000 1,171 Climbing Indianapolis Center
Mon 09:24:20 AM 36.3858 -84.5061 179° South 457 526 29,200 1,220 Climbing Indianapolis Center
Mon 09:25:22 AM 36.2333 -84.5017 179° South 463 533 30,500 1,258 Climbing Indianapolis Center
Mon 09:26:24 AM 36.1025 -84.4983 179° South 465 535 31,800 1,210 Climbing Indianapolis Center
Mon 09:27:26 AM 35.9739 -84.4953 179° South 466 536 33,000 726 Climbing Indianapolis Center
Mon 09:28:28 AM 35.8469 -84.4919 179° South 461 531 33,300 480 Climbing Indianapolis Center
Mon 09:29:31 AM 35.6986 -84.4889 179° South 461 531 34,000 927 Climbing Atlanta Center
Mon 09:30:31 AM 35.5736 -84.4881 180° South 450 518 35,200 900 Climbing Atlanta Center
Mon 09:31:31 AM 35.4650 -84.4850 179° South 450 518 35,800 400 Climbing Atlanta Center
Mon 09:32:31 AM 35.3461 -84.4817 179° South 437 503 36,000 100 Climbing Atlanta Center
Mon 09:33:31 AM 35.2208 -84.4786 179° South 443 510 36,000  Level Atlanta Center
Mon 09:34:31 AM 35.0917 -84.4753 179° South 448 516 36,000 200 Level Atlanta Center
Mon 09:35:31 AM 34.9664 -84.4697 178° South 458 527 36,400 500 Climbing Atlanta Center
Mon 09:36:31 AM 34.8392 -84.4639 178° South 458 527 37,000 300 Climbing Atlanta Center
Mon 09:37:31 AM 34.7119 -84.4608 179° South 458 527 37,000  Level Atlanta Center
Mon 09:38:31 AM 34.5844 -84.4603 180° South 458 527 37,000 50 Level Atlanta Center
Mon 09:39:31 AM 34.4511 -84.4569 179° South 464 534 37,100  Climbing Atlanta Center
Mon 09:40:31 AM 34.3217 -84.4539 179° South 464 534 37,000 -50 Descending Atlanta Center
Mon 09:41:31 AM 34.1944 -84.4481 178° South 464 534 37,000  Level Atlanta Center
Mon 09:42:31 AM 34.0608 -84.4475 180° South 471 542 37,000  Level Atlanta Center
Mon 09:43:31 AM 33.9292 -84.4444 179° South 476 548 37,000  Level Atlanta Center
Mon 09:44:31 AM 33.8042 -84.4414 179° South 471 542 37,000  Level Atlanta Center
Mon 09:45:31 AM 33.6725 -84.4381 179° South 471 542 37,000  Level Atlanta Center
Mon 09:46:31 AM 33.5264 -84.4350 179° South 471 542 37,000  Level Atlanta Center
Mon 09:47:31 AM 33.3969 -84.4319 179° South 471 542 37,000  Level Atlanta Center
Mon 09:48:31 AM 33.2697 -84.4314 180° South 471 542 37,000  Level Atlanta Center
Mon 09:49:31 AM 33.1425 -84.4258 178° South 465 535 37,000  Level Atlanta Center
Mon 09:50:31 AM 33.0150 -84.4253 180° South 460 529 37,000  Level Atlanta Center
Mon 09:51:31 AM 32.8878 -84.4222 179° South 460 529 37,000  Level Atlanta Center
Mon 09:52:31 AM 32.7625 -84.4192 179° South 460 529 37,000  Level Atlanta Center
Mon 09:53:31 AM 32.6372 -84.4161 179° South 453 521 37,000  Level Atlanta Center
Mon 09:54:31 AM 32.5100 -84.4133 179° South 459 528 37,000  Level Atlanta Center
Mon 09:56:27 AM 32.2619 -84.4083 179° South 441 507 37,000  Level Jacksonville Center
Mon 09:57:27 AM 32.1344 -84.4064 179° South 446 513 37,000  Level Jacksonville Center
Mon 09:58:27 AM 32.0072 -84.4042 179° South 452 520 37,000  Level Jacksonville Center
Mon 09:59:27 AM 31.8800 -84.3997 178° South 457 526 37,000  Level Jacksonville Center
Mon 10:00:27 AM 31.7547 -84.3978 179° South 457 526 37,000  Level Jacksonville Center
Mon 10:01:27 AM 31.6294 -84.3981 180° South 457 526 37,000  Level Jacksonville Center
Mon 10:02:27 AM 31.5025 -84.3644 167° South 457 526 37,000  Level Jacksonville Center
Mon 10:03:27 AM 31.3817 -84.3333 168° South 457 526 37,000  Level Jacksonville Center
Mon 10:04:27 AM 31.2589 -84.2972 166° South 457 526 37,000  Level Jacksonville Center
Mon 10:05:27 AM 31.1361 -84.2639 167° South 457 526 37,000  Level Jacksonville Center
Mon 10:06:27 AM 31.0133 -84.2258 165° South 452 520 37,000  Level Jacksonville Center
Mon 10:07:27 AM 30.8906 -84.1925 167° South 452 520 37,000  Level Jacksonville Center
Mon 10:08:27 AM 30.7656 -84.1594 167° South 452 520 37,000  Level Jacksonville Center
Mon 10:09:27 AM 30.6428 -84.1239 166° South 452 520 37,000  Level Jacksonville Center
Mon 10:10:27 AM 30.5386 -84.0936 166° South 452 520 37,000  Level Jacksonville Center
Mon 10:11:27 AM 30.4156 -84.0583 166° South 447 514 37,000 -50 Level Jacksonville Center
Mon 10:12:27 AM 30.2928 -84.0281 168° South 452 520 36,900  Descending Jacksonville Center
Mon 10:13:27 AM 30.1700 -83.9953 167° South 452 520 37,000 50 Climbing Jacksonville Center
Mon 10:14:27 AM 30.0469 -83.9603 166° South 452 520 37,000  Level Jacksonville Center
Mon 10:15:27 AM 29.9261 -83.9278 167° South 452 520 37,000  Level Jacksonville Center
Mon 10:16:27 AM 29.8075 -83.8908 165° South 452 520 37,000 -1,000 Level Jacksonville Center
Mon 10:17:27 AM 29.6953 -83.8203 151° Southeast 447 514 35,000 -2,350 Descending Jacksonville Center
Mon 10:18:27 AM 29.5850 -83.7475 150° Southeast 453 521 32,300 -2,450 Descending Jacksonville Center
Mon 10:19:27 AM 29.4792 -83.6775 150° Southeast 448 516 30,100 -2,200 Descending Jacksonville Center
Mon 10:20:27 AM 29.3753 -83.6100 150° Southeast 443 510 27,900 -2,150 Descending Jacksonville Center
Mon 10:21:27 AM 29.2733 -83.5447 151° Southeast 432 497 25,800 -1,750 Descending Jacksonville Center
Mon 10:22:27 AM 29.1733 -83.4800 151° Southeast 426 490 24,400 -1,300 Descending Jacksonville Center
Mon 10:23:27 AM 29.0672 -83.4128 151° Southeast 408 470 23,200 -1,050 Descending Jacksonville Center
Mon 10:24:27 AM 28.9692 -83.3531 152° Southeast 408 470 22,300 -950 Descending Jacksonville Center
Mon 10:25:27 AM 28.8756 -83.2886 149° Southeast 403 464 21,300 -1,250 Descending Jacksonville Center
Mon 10:26:27 AM 28.7839 -83.2314 151° Southeast 391 450 19,800 -1,630 Descending Jacksonville Center
Mon 10:28:09 AM 28.6378 -83.1381 151° Southeast 376 433 16,900 -1,708 Descending Miami Center
Mon 10:28:51 AM 28.5667 -83.1000 155° Southeast 370 426 15,700 -1,688 Descending Tampa TRACON
Mon 10:29:45 AM 28.4833 -83.0500 152° Southeast 361 415 14,200 -1,565 Descending Tampa TRACON
Mon 10:30:46 AM 28.4000 -82.9833 145° Southeast 351 404 12,700 -1,636 Descending Tampa TRACON
Mon 10:31:46 AM 28.3333 -82.9167 139° Southeast 331 381 10,900 -1,714 Descending Tampa TRACON
Mon 10:32:17 AM 28.2967 -82.8903 148° Southeast 335 386 10,100 -1,846 Descending Miami Center
Mon 10:32:51 AM 28.2500 -82.8500 143° Southeast 303 349 8,900 -2,234 Descending Tampa TRACON
Mon 10:33:51 AM 28.2000 -82.8000 139° Southeast 283 326 6,600 -2,281 Descending Tampa TRACON
Mon 10:34:52 AM 28.1333 -82.7500 147° Southeast 276 318 4,300 -1,983 Descending Tampa TRACON
Mon 10:35:52 AM 28.0667 -82.7167 156° South 262 302 2,600 -1,350 Descending Tampa TRACON
Mon 10:36:52 AM 28.0167 -82.6667 139° Southeast 215 247 1,600 -900 Descending Tampa TRACON
Mon 10:37:52 AM 27.9667 -82.6833 196° South 146 168 800 -494 Descending Tampa TRACON
Mon 10:39:30 AM 27.8986 -82.6981 191° South 170 196 300 -306 Descending Miami Center

Login

Don't have an account? Register now (free) for customized features, flight alerts, and more!